sensor_id;sensor_type;location;lat;lon;timestamp;temperature;humidity
10905;DHT22;5505;51.450;9.254;2024-02-23T00:01:58;7.80;99.90
10905;DHT22;5505;51.450;9.254;2024-02-23T00:04:45;7.80;99.90
10905;DHT22;5505;51.450;9.254;2024-02-23T00:07:32;7.80;99.90
10905;DHT22;5505;51.450;9.254;2024-02-23T00:10:19;7.70;99.90
10905;DHT22;5505;51.450;9.254;2024-02-23T00:13:07;7.70;99.90
10905;DHT22;5505;51.450;9.254;2024-02-23T00:15:53;7.70;99.90
10905;DHT22;5505;51.450;9.254;2024-02-23T00:18:40;7.80;99.90
10905;DHT22;5505;51.450;9.254;2024-02-23T00:21:27;7.80;99.90
10905;DHT22;5505;51.450;9.254;2024-02-23T00:24:14;7.70;99.90
10905;DHT22;5505;51.450;9.254;2024-02-23T00:27:02;7.70;99.90
10905;DHT22;5505;51.450;9.254;2024-02-23T00:29:50;7.70;99.90
10905;DHT22;5505;51.450;9.254;2024-02-23T00:32:37;7.70;99.90
10905;DHT22;5505;51.450;9.254;2024-02-23T00:35:23;7.60;99.90
10905;DHT22;5505;51.450;9.254;2024-02-23T00:38:10;7.50;99.90
10905;DHT22;5505;51.450;9.254;2024-02-23T00:40:57;7.40;99.90
10905;DHT22;5505;51.450;9.254;2024-02-23T00:43:43;7.30;99.90
10905;DHT22;5505;51.450;9.254;2024-02-23T00:46:32;7.20;99.90
10905;DHT22;5505;51.450;9.254;2024-02-23T00:49:19;7.20;99.90
10905;DHT22;5505;51.450;9.254;2024-02-23T00:52:06;7.20;99.90
10905;DHT22;5505;51.450;9.254;2024-02-23T00:54:53;7.20;99.90
10905;DHT22;5505;51.450;9.254;2024-02-23T00:57:39;7.10;99.90
10905;DHT22;5505;51.450;9.254;2024-02-23T01:00:26;7.10;99.90
10905;DHT22;5505;51.450;9.254;2024-02-23T01:03:14;7.10;99.90
10905;DHT22;5505;51.450;9.254;2024-02-23T01:06:01;7.10;99.90
10905;DHT22;5505;51.450;9.254;2024-02-23T01:08:48;7.00;99.90
10905;DHT22;5505;51.450;9.254;2024-02-23T01:11:35;7.10;99.90
10905;DHT22;5505;51.450;9.254;2024-02-23T01:14:22;7.60;99.90
10905;DHT22;5505;51.450;9.254;2024-02-23T01:17:08;7.00;99.90
10905;DHT22;5505;51.450;9.254;2024-02-23T01:19:57;7.00;99.90
10905;DHT22;5505;51.450;9.254;2024-02-23T01:22:43;6.90;99.90
10905;DHT22;5505;51.450;9.254;2024-02-23T01:25:30;6.90;99.90
10905;DHT22;5505;51.450;9.254;2024-02-23T01:28:20;6.90;99.90
10905;DHT22;5505;51.450;9.254;2024-02-23T01:31:08;6.90;99.90
10905;DHT22;5505;51.450;9.254;2024-02-23T01:33:57;6.90;99.90
10905;DHT22;5505;51.450;9.254;2024-02-23T01:36:45;6.90;99.90
10905;DHT22;5505;51.450;9.254;2024-02-23T01:39:32;6.90;99.90
10905;DHT22;5505;51.450;9.254;2024-02-23T01:42:18;8.40;99.90
10905;DHT22;5505;51.450;9.254;2024-02-23T01:45:06;8.30;99.90
10905;DHT22;5505;51.450;9.254;2024-02-23T01:47:53;6.80;99.90
10905;DHT22;5505;51.450;9.254;2024-02-23T01:50:40;6.70;99.90
10905;DHT22;5505;51.450;9.254;2024-02-23T01:53:30;6.70;99.90
10905;DHT22;5505;51.450;9.254;2024-02-23T01:56:17;6.60;99.90
10905;DHT22;5505;51.450;9.254;2024-02-23T01:59:06;6.40;99.90
10905;DHT22;5505;51.450;9.254;2024-02-23T02:01:53;6.20;99.90
10905;DHT22;5505;51.450;9.254;2024-02-23T02:04:39;5.90;99.90
10905;DHT22;5505;51.450;9.254;2024-02-23T02:07:26;5.70;99.90
10905;DHT22;5505;51.450;9.254;2024-02-23T02:10:14;5.50;99.90
10905;DHT22;5505;51.450;9.254;2024-02-23T02:13:02;5.40;99.90
10905;DHT22;5505;51.450;9.254;2024-02-23T02:15:50;5.40;99.90
10905;DHT22;5505;51.450;9.254;2024-02-23T02:18:36;6.90;99.90
10905;DHT22;5505;51.450;9.254;2024-02-23T02:21:23;5.40;99.90
10905;DHT22;5505;51.450;9.254;2024-02-23T02:24:10;5.30;99.90
10905;DHT22;5505;51.450;9.254;2024-02-23T02:26:58;5.30;99.90
10905;DHT22;5505;51.450;9.254;2024-02-23T02:29:45;5.20;99.90
10905;DHT22;5505;51.450;9.254;2024-02-23T02:32:32;5.20;99.90
10905;DHT22;5505;51.450;9.254;2024-02-23T02:35:19;5.20;99.90
10905;DHT22;5505;51.450;9.254;2024-02-23T02:38:05;5.10;99.90
10905;DHT22;5505;51.450;9.254;2024-02-23T02:40:52;6.60;99.90
10905;DHT22;5505;51.450;9.254;2024-02-23T02:43:40;5.10;99.90
10905;DHT22;5505;51.450;9.254;2024-02-23T02:46:27;5.10;99.90
10905;DHT22;5505;51.450;9.254;2024-02-23T02:49:14;5.10;99.90
10905;DHT22;5505;51.450;9.254;2024-02-23T02:52:00;5.10;99.90
10905;DHT22;5505;51.450;9.254;2024-02-23T02:54:47;5.20;99.90
10905;DHT22;5505;51.450;9.254;2024-02-23T02:57:34;5.10;99.90
10905;DHT22;5505;51.450;9.254;2024-02-23T03:00:23;5.00;99.90
10905;DHT22;5505;51.450;9.254;2024-02-23T03:03:11;5.00;99.90
10905;DHT22;5505;51.450;9.254;2024-02-23T03:05:58;4.90;99.90
10905;DHT22;5505;51.450;9.254;2024-02-23T03:08:45;4.90;99.90
10905;DHT22;5505;51.450;9.254;2024-02-23T03:11:32;5.00;99.90
10905;DHT22;5505;51.450;9.254;2024-02-23T03:14:18;5.00;99.90
10905;DHT22;5505;51.450;9.254;2024-02-23T03:17:08;5.30;99.90
10905;DHT22;5505;51.450;9.254;2024-02-23T03:19:55;4.90;99.90
10905;DHT22;5505;51.450;9.254;2024-02-23T03:22:43;5.00;99.90
10905;DHT22;5505;51.450;9.254;2024-02-23T03:25:30;4.90;99.90
10905;DHT22;5505;51.450;9.254;2024-02-23T03:28:17;4.90;99.90
10905;DHT22;5505;51.450;9.254;2024-02-23T03:31:03;4.90;99.90
10905;DHT22;5505;51.450;9.254;2024-02-23T03:33:52;4.80;99.90
10905;DHT22;5505;51.450;9.254;2024-02-23T03:36:39;4.70;99.90
10905;DHT22;5505;51.450;9.254;2024-02-23T03:39:26;4.70;99.90
10905;DHT22;5505;51.450;9.254;2024-02-23T03:42:14;4.80;99.90
10905;DHT22;5505;51.450;9.254;2024-02-23T03:45:00;3.10;99.90
10905;DHT22;5505;51.450;9.254;2024-02-23T03:47:47;4.90;99.90
10905;DHT22;5505;51.450;9.254;2024-02-23T03:50:35;6.70;99.90
10905;DHT22;5505;51.450;9.254;2024-02-23T03:53:22;5.00;99.90
10905;DHT22;5505;51.450;9.254;2024-02-23T03:56:09;5.10;99.90
10905;DHT22;5505;51.450;9.254;2024-02-23T03:58:56;4.90;99.90
10905;DHT22;5505;51.450;9.254;2024-02-23T04:01:43;5.00;99.90
10905;DHT22;5505;51.450;9.254;2024-02-23T04:04:30;5.00;99.90
10905;DHT22;5505;51.450;9.254;2024-02-23T04:07:18;5.00;99.90
10905;DHT22;5505;51.450;9.254;2024-02-23T04:10:06;5.00;99.90
10905;DHT22;5505;51.450;9.254;2024-02-23T04:12:53;5.00;99.90
10905;DHT22;5505;51.450;9.254;2024-02-23T04:15:40;5.00;99.90
10905;DHT22;5505;51.450;9.254;2024-02-23T04:18:26;5.10;99.90
10905;DHT22;5505;51.450;9.254;2024-02-23T04:21:13;5.10;99.90
10905;DHT22;5505;51.450;9.254;2024-02-23T04:24:02;5.20;99.90
10905;DHT22;5505;51.450;9.254;2024-02-23T04:26:49;5.10;99.90
10905;DHT22;5505;51.450;9.254;2024-02-23T04:29:36;5.20;99.90
10905;DHT22;5505;51.450;9.254;2024-02-23T04:32:22;6.50;99.90
10905;DHT22;5505;51.450;9.254;2024-02-23T04:35:09;5.10;99.90
10905;DHT22;5505;51.450;9.254;2024-02-23T04:37:56;5.10;99.90
10905;DHT22;5505;51.450;9.254;2024-02-23T04:40:44;5.10;99.90
10905;DHT22;5505;51.450;9.254;2024-02-23T04:43:31;5.00;99.90
10905;DHT22;5505;51.450;9.254;2024-02-23T04:46:18;5.00;99.90
10905;DHT22;5505;51.450;9.254;2024-02-23T04:49:05;5.00;99.90
10905;DHT22;5505;51.450;9.254;2024-02-23T04:51:52;6.50;99.90
10905;DHT22;5505;51.450;9.254;2024-02-23T04:54:38;4.90;99.90
10905;DHT22;5505;51.450;9.254;2024-02-23T04:57:27;4.90;99.90
10905;DHT22;5505;51.450;9.254;2024-02-23T05:00:14;4.90;99.90
10905;DHT22;5505;51.450;9.254;2024-02-23T05:03:01;4.90;99.90
10905;DHT22;5505;51.450;9.254;2024-02-23T05:05:49;4.90;99.90
10905;DHT22;5505;51.450;9.254;2024-02-23T05:08:39;4.90;99.90
10905;DHT22;5505;51.450;9.254;2024-02-23T05:11:26;4.80;99.90
10905;DHT22;5505;51.450;9.254;2024-02-23T05:14:14;4.80;99.90
10905;DHT22;5505;51.450;9.254;2024-02-23T05:17:01;4.80;99.90
10905;DHT22;5505;51.450;9.254;2024-02-23T05:19:49;4.70;99.90
10905;DHT22;5505;51.450;9.254;2024-02-23T05:22:36;4.70;99.90
10905;DHT22;5505;51.450;9.254;2024-02-23T05:25:22;4.70;99.90
10905;DHT22;5505;51.450;9.254;2024-02-23T05:28:11;5.10;99.90
10905;DHT22;5505;51.450;9.254;2024-02-23T05:31:01;6.60;99.90
10905;DHT22;5505;51.450;9.254;2024-02-23T05:33:49;4.60;99.90
10905;DHT22;5505;51.450;9.254;2024-02-23T05:36:36;4.70;99.90
10905;DHT22;5505;51.450;9.254;2024-02-23T05:39:22;4.60;99.90
10905;DHT22;5505;51.450;9.254;2024-02-23T05:42:09;4.60;99.90
10905;DHT22;5505;51.450;9.254;2024-02-23T05:44:56;4.70;99.90
10905;DHT22;5505;51.450;9.254;2024-02-23T05:47:44;4.70;99.90
10905;DHT22;5505;51.450;9.254;2024-02-23T05:50:31;4.60;99.90
10905;DHT22;5505;51.450;9.254;2024-02-23T05:53:18;4.60;99.90
10905;DHT22;5505;51.450;9.254;2024-02-23T05:56:05;4.50;99.90
10905;DHT22;5505;51.450;9.254;2024-02-23T05:58:52;4.50;99.90
10905;DHT22;5505;51.450;9.254;2024-02-23T06:01:39;5.00;99.90
10905;DHT22;5505;51.450;9.254;2024-02-23T06:04:27;4.40;99.90
10905;DHT22;5505;51.450;9.254;2024-02-23T06:07:14;4.50;99.90
10905;DHT22;5505;51.450;9.254;2024-02-23T06:10:02;4.40;99.90
10905;DHT22;5505;51.450;9.254;2024-02-23T06:12:48;4.50;99.90
10905;DHT22;5505;51.450;9.254;2024-02-23T06:15:35;4.50;99.90
10905;DHT22;5505;51.450;9.254;2024-02-23T06:18:22;4.40;99.90
10905;DHT22;5505;51.450;9.254;2024-02-23T06:21:14;4.60;99.90
10905;DHT22;5505;51.450;9.254;2024-02-23T06:24:02;4.40;99.90
10905;DHT22;5505;51.450;9.254;2024-02-23T06:26:49;4.40;99.90
10905;DHT22;5505;51.450;9.254;2024-02-23T06:29:37;4.40;99.90
10905;DHT22;5505;51.450;9.254;2024-02-23T06:32:24;4.30;99.90
10905;DHT22;5505;51.450;9.254;2024-02-23T06:35:11;5.50;99.90
10905;DHT22;5505;51.450;9.254;2024-02-23T06:37:59;4.30;99.90
10905;DHT22;5505;51.450;9.254;2024-02-23T06:40:46;4.20;99.90
10905;DHT22;5505;51.450;9.254;2024-02-23T06:43:33;4.20;99.90
10905;DHT22;5505;51.450;9.254;2024-02-23T06:46:19;4.20;99.90
10905;DHT22;5505;51.450;9.254;2024-02-23T06:49:07;4.20;99.90
10905;DHT22;5505;51.450;9.254;2024-02-23T06:51:54;4.20;99.90
10905;DHT22;5505;51.450;9.254;2024-02-23T06:54:42;3.00;99.90
10905;DHT22;5505;51.450;9.254;2024-02-23T06:57:29;4.00;99.90
10905;DHT22;5505;51.450;9.254;2024-02-23T07:00:16;4.00;99.90
10905;DHT22;5505;51.450;9.254;2024-02-23T07:03:04;4.00;99.90
10905;DHT22;5505;51.450;9.254;2024-02-23T07:05:51;4.00;99.90
10905;DHT22;5505;51.450;9.254;2024-02-23T07:08:38;4.00;99.90
10905;DHT22;5505;51.450;9.254;2024-02-23T07:11:26;4.00;99.90
10905;DHT22;5505;51.450;9.254;2024-02-23T07:14:13;4.10;99.90
10905;DHT22;5505;51.450;9.254;2024-02-23T07:17:02;4.70;99.90
10905;DHT22;5505;51.450;9.254;2024-02-23T07:19:49;4.60;99.90
10905;DHT22;5505;51.450;9.254;2024-02-23T07:22:38;5.50;99.90
10905;DHT22;5505;51.450;9.254;2024-02-23T07:25:25;4.70;99.90
10905;DHT22;5505;51.450;9.254;2024-02-23T07:28:13;4.80;99.90
10905;DHT22;5505;51.450;9.254;2024-02-23T07:31:03;5.00;99.90
10905;DHT22;5505;51.450;9.254;2024-02-23T07:33:50;5.10;99.90
10905;DHT22;5505;51.450;9.254;2024-02-23T07:36:37;6.10;99.90
10905;DHT22;5505;51.450;9.254;2024-02-23T07:39:24;5.40;99.90
10905;DHT22;5505;51.450;9.254;2024-02-23T07:42:12;5.60;99.90
10905;DHT22;5505;51.450;9.254;2024-02-23T07:45:06;5.60;99.90
10905;DHT22;5505;51.450;9.254;2024-02-23T07:47:54;5.70;99.90
10905;DHT22;5505;51.450;9.254;2024-02-23T07:50:41;5.70;99.90
10905;DHT22;5505;51.450;9.254;2024-02-23T07:53:28;5.80;99.90
10905;DHT22;5505;51.450;9.254;2024-02-23T07:56:15;5.90;99.90
10905;DHT22;5505;51.450;9.254;2024-02-23T07:59:02;6.10;99.90
10905;DHT22;5505;51.450;9.254;2024-02-23T08:01:50;6.10;99.90
10905;DHT22;5505;51.450;9.254;2024-02-23T08:04:37;6.30;99.90
10905;DHT22;5505;51.450;9.254;2024-02-23T08:07:24;7.90;99.90
10905;DHT22;5505;51.450;9.254;2024-02-23T08:10:11;6.30;99.90
10905;DHT22;5505;51.450;9.254;2024-02-23T08:12:59;6.30;99.90
10905;DHT22;5505;51.450;9.254;2024-02-23T08:15:45;6.40;99.90
10905;DHT22;5505;51.450;9.254;2024-02-23T08:18:34;6.40;99.90
10905;DHT22;5505;51.450;9.254;2024-02-23T08:21:20;6.30;99.90
10905;DHT22;5505;51.450;9.254;2024-02-23T08:24:07;6.20;99.90
10905;DHT22;5505;51.450;9.254;2024-02-23T08:26:54;6.10;99.90
10905;DHT22;5505;51.450;9.254;2024-02-23T08:29:41;7.00;99.90
10905;DHT22;5505;51.450;9.254;2024-02-23T08:32:28;5.90;99.90
10905;DHT22;5505;51.450;9.254;2024-02-23T08:35:16;6.80;99.90
10905;DHT22;5505;51.450;9.254;2024-02-23T08:38:04;5.80;99.90
10905;DHT22;5505;51.450;9.254;2024-02-23T08:40:50;6.00;99.90
10905;DHT22;5505;51.450;9.254;2024-02-23T08:43:37;6.20;99.90
10905;DHT22;5505;51.450;9.254;2024-02-23T08:46:24;6.40;99.90
10905;DHT22;5505;51.450;9.254;2024-02-23T08:49:11;6.50;99.90
10905;DHT22;5505;51.450;9.254;2024-02-23T08:51:59;6.50;99.90
10905;DHT22;5505;51.450;9.254;2024-02-23T08:54:47;6.50;99.90
10905;DHT22;5505;51.450;9.254;2024-02-23T08:57:34;6.50;99.90
10905;DHT22;5505;51.450;9.254;2024-02-23T09:00:21;6.60;99.90
10905;DHT22;5505;51.450;9.254;2024-02-23T09:03:09;6.50;99.90
10905;DHT22;5505;51.450;9.254;2024-02-23T09:05:56;6.50;99.90
10905;DHT22;5505;51.450;9.254;2024-02-23T09:08:45;6.60;99.90
10905;DHT22;5505;51.450;9.254;2024-02-23T09:11:31;6.60;99.90
10905;DHT22;5505;51.450;9.254;2024-02-23T09:14:18;6.60;99.90
10905;DHT22;5505;51.450;9.254;2024-02-23T09:17:05;6.60;99.90
10905;DHT22;5505;51.450;9.254;2024-02-23T09:19:54;6.80;99.90
10905;DHT22;5505;51.450;9.254;2024-02-23T09:22:40;6.90;99.90
10905;DHT22;5505;51.450;9.254;2024-02-23T09:25:28;7.10;99.90
10905;DHT22;5505;51.450;9.254;2024-02-23T09:28:15;7.20;99.90
10905;DHT22;5505;51.450;9.254;2024-02-23T09:31:02;7.20;99.90
10905;DHT22;5505;51.450;9.254;2024-02-23T09:33:50;7.20;99.90
10905;DHT22;5505;51.450;9.254;2024-02-23T09:36:37;7.20;99.90
10905;DHT22;5505;51.450;9.254;2024-02-23T09:39:24;7.30;99.90
10905;DHT22;5505;51.450;9.254;2024-02-23T09:42:13;7.20;99.90
10905;DHT22;5505;51.450;9.254;2024-02-23T09:45:01;7.30;99.90
10905;DHT22;5505;51.450;9.254;2024-02-23T09:47:48;7.30;99.90
10905;DHT22;5505;51.450;9.254;2024-02-23T09:50:36;7.50;99.90
10905;DHT22;5505;51.450;9.254;2024-02-23T09:53:24;7.60;99.90
10905;DHT22;5505;51.450;9.254;2024-02-23T09:56:10;7.60;99.90
10905;DHT22;5505;51.450;9.254;2024-02-23T09:59:01;7.70;99.90
10905;DHT22;5505;51.450;9.254;2024-02-23T10:01:48;7.70;99.90
10905;DHT22;5505;51.450;9.254;2024-02-23T10:04:38;7.60;99.90
10905;DHT22;5505;51.450;9.254;2024-02-23T10:07:26;7.60;99.90
10905;DHT22;5505;51.450;9.254;2024-02-23T10:10:13;7.40;99.90
10905;DHT22;5505;51.450;9.254;2024-02-23T10:13:00;7.30;99.90
10905;DHT22;5505;51.450;9.254;2024-02-23T10:15:48;7.10;99.90
10905;DHT22;5505;51.450;9.254;2024-02-23T10:18:37;7.10;99.90
10905;DHT22;5505;51.450;9.254;2024-02-23T10:21:24;6.90;99.90
10905;DHT22;5505;51.450;9.254;2024-02-23T10:24:11;6.90;99.90
10905;DHT22;5505;51.450;9.254;2024-02-23T10:27:00;7.00;99.90
10905;DHT22;5505;51.450;9.254;2024-02-23T10:29:49;7.10;99.90
10905;DHT22;5505;51.450;9.254;2024-02-23T10:32:38;7.10;99.90
10905;DHT22;5505;51.450;9.254;2024-02-23T10:35:26;8.40;99.90
10905;DHT22;5505;51.450;9.254;2024-02-23T10:38:15;7.10;99.90
10905;DHT22;5505;51.450;9.254;2024-02-23T10:41:05;7.20;99.90
10905;DHT22;5505;51.450;9.254;2024-02-23T10:43:52;7.30;99.90
10905;DHT22;5505;51.450;9.254;2024-02-23T10:46:40;7.30;99.90
10905;DHT22;5505;51.450;9.254;2024-02-23T10:49:28;7.40;99.90
10905;DHT22;5505;51.450;9.254;2024-02-23T10:52:17;7.50;99.90
10905;DHT22;5505;51.450;9.254;2024-02-23T10:55:07;7.60;99.90
10905;DHT22;5505;51.450;9.254;2024-02-23T10:57:55;7.60;99.90
10905;DHT22;5505;51.450;9.254;2024-02-23T11:00:42;7.50;99.90
10905;DHT22;5505;51.450;9.254;2024-02-23T11:03:32;7.50;99.90
10905;DHT22;5505;51.450;9.254;2024-02-23T11:06:27;7.60;99.90
10905;DHT22;5505;51.450;9.254;2024-02-23T11:09:14;8.30;99.90
10905;DHT22;5505;51.450;9.254;2024-02-23T11:12:04;7.70;99.90
10905;DHT22;5505;51.450;9.254;2024-02-23T11:14:56;7.70;99.90
10905;DHT22;5505;51.450;9.254;2024-02-23T11:17:50;7.80;99.90
10905;DHT22;5505;51.450;9.254;2024-02-23T11:20:37;7.90;99.90
10905;DHT22;5505;51.450;9.254;2024-02-23T11:23:25;8.00;99.90
10905;DHT22;5505;51.450;9.254;2024-02-23T11:26:12;7.90;99.90
10905;DHT22;5505;51.450;9.254;2024-02-23T11:29:08;7.90;99.90
10905;DHT22;5505;51.450;9.254;2024-02-23T11:31:56;7.90;99.90
10905;DHT22;5505;51.450;9.254;2024-02-23T11:34:56;10.30;99.90
10905;DHT22;5505;51.450;9.254;2024-02-23T11:37:47;7.90;99.90
10905;DHT22;5505;51.450;9.254;2024-02-23T11:40:37;8.00;99.90
10905;DHT22;5505;51.450;9.254;2024-02-23T11:43:24;9.60;99.90
10905;DHT22;5505;51.450;9.254;2024-02-23T11:46:12;8.10;99.90
10905;DHT22;5505;51.450;9.254;2024-02-23T11:48:59;8.10;99.90
10905;DHT22;5505;51.450;9.254;2024-02-23T11:51:45;8.30;99.90
10905;DHT22;5505;51.450;9.254;2024-02-23T11:54:32;9.00;99.90
10905;DHT22;5505;51.450;9.254;2024-02-23T11:57:21;8.20;99.90
10905;DHT22;5505;51.450;9.254;2024-02-23T12:00:08;8.20;99.90
10905;DHT22;5505;51.450;9.254;2024-02-23T12:02:56;8.20;99.90
10905;DHT22;5505;51.450;9.254;2024-02-23T12:05:43;8.30;99.90
10905;DHT22;5505;51.450;9.254;2024-02-23T12:08:30;8.40;99.90
10905;DHT22;5505;51.450;9.254;2024-02-23T12:11:23;8.40;99.90
10905;DHT22;5505;51.450;9.254;2024-02-23T12:14:12;8.40;99.90
10905;DHT22;5505;51.450;9.254;2024-02-23T12:17:02;8.20;99.90
10905;DHT22;5505;51.450;9.254;2024-02-23T12:19:49;8.40;99.90
10905;DHT22;5505;51.450;9.254;2024-02-23T12:22:35;8.50;99.90
10905;DHT22;5505;51.450;9.254;2024-02-23T12:25:22;8.50;99.90
10905;DHT22;5505;51.450;9.254;2024-02-23T12:28:09;8.50;99.90
10905;DHT22;5505;51.450;9.254;2024-02-23T12:31:01;8.60;99.90
10905;DHT22;5505;51.450;9.254;2024-02-23T12:33:48;8.60;99.90
10905;DHT22;5505;51.450;9.254;2024-02-23T12:36:36;8.50;99.90
10905;DHT22;5505;51.450;9.254;2024-02-23T12:39:23;9.40;99.90
10905;DHT22;5505;51.450;9.254;2024-02-23T12:42:10;9.20;99.90
10905;DHT22;5505;51.450;9.254;2024-02-23T12:44:57;8.50;99.90
10905;DHT22;5505;51.450;9.254;2024-02-23T12:47:45;9.50;99.90
10905;DHT22;5505;51.450;9.254;2024-02-23T12:50:32;8.60;99.90
10905;DHT22;5505;51.450;9.254;2024-02-23T12:53:31;8.40;99.90
10905;DHT22;5505;51.450;9.254;2024-02-23T12:56:19;8.40;99.90
10905;DHT22;5505;51.450;9.254;2024-02-23T12:59:06;8.40;99.90
10905;DHT22;5505;51.450;9.254;2024-02-23T13:01:54;8.40;99.90
10905;DHT22;5505;51.450;9.254;2024-02-23T13:04:43;8.40;99.90
10905;DHT22;5505;51.450;9.254;2024-02-23T13:07:34;9.80;99.90
10905;DHT22;5505;51.450;9.254;2024-02-23T13:10:20;8.50;99.90
10905;DHT22;5505;51.450;9.254;2024-02-23T13:13:07;8.50;99.90
10905;DHT22;5505;51.450;9.254;2024-02-23T13:15:55;8.40;99.90
10905;DHT22;5505;51.450;9.254;2024-02-23T13:18:42;8.50;99.90
10905;DHT22;5505;51.450;9.254;2024-02-23T13:21:30;8.30;99.90
10905;DHT22;5505;51.450;9.254;2024-02-23T13:24:18;8.20;99.90
10905;DHT22;5505;51.450;9.254;2024-02-23T13:27:05;8.90;99.90
10905;DHT22;5505;51.450;9.254;2024-02-23T13:29:51;8.80;99.90
10905;DHT22;5505;51.450;9.254;2024-02-23T13:32:38;8.20;99.90
10905;DHT22;5505;51.450;9.254;2024-02-23T13:35:25;8.40;99.90
10905;DHT22;5505;51.450;9.254;2024-02-23T13:38:13;8.10;99.90
10905;DHT22;5505;51.450;9.254;2024-02-23T13:41:00;8.10;99.90
10905;DHT22;5505;51.450;9.254;2024-02-23T13:43:47;9.70;99.90
10905;DHT22;5505;51.450;9.254;2024-02-23T13:46:36;8.10;99.90
10905;DHT22;5505;51.450;9.254;2024-02-23T13:49:24;8.10;99.90
10905;DHT22;5505;51.450;9.254;2024-02-23T13:52:11;8.10;99.90
10905;DHT22;5505;51.450;9.254;2024-02-23T13:55:00;8.00;99.90
10905;DHT22;5505;51.450;9.254;2024-02-23T13:57:47;7.90;99.90
10905;DHT22;5505;51.450;9.254;2024-02-23T14:00:34;7.70;99.90
10905;DHT22;5505;51.450;9.254;2024-02-23T14:03:21;7.60;99.90
10905;DHT22;5505;51.450;9.254;2024-02-23T14:06:08;7.50;99.90
10905;DHT22;5505;51.450;9.254;2024-02-23T14:08:55;8.50;99.90
10905;DHT22;5505;51.450;9.254;2024-02-23T14:11:44;7.50;99.90
10905;DHT22;5505;51.450;9.254;2024-02-23T14:14:31;7.60;99.90
10905;DHT22;5505;51.450;9.254;2024-02-23T14:17:18;7.60;99.90
10905;DHT22;5505;51.450;9.254;2024-02-23T14:20:05;7.70;99.90
10905;DHT22;5505;51.450;9.254;2024-02-23T14:22:52;7.60;99.90
10905;DHT22;5505;51.450;9.254;2024-02-23T14:25:39;7.50;99.90
10905;DHT22;5505;51.450;9.254;2024-02-23T14:28:27;7.30;99.90
10905;DHT22;5505;51.450;9.254;2024-02-23T14:31:14;7.20;99.90
10905;DHT22;5505;51.450;9.254;2024-02-23T14:34:01;7.20;99.90
10905;DHT22;5505;51.450;9.254;2024-02-23T14:36:48;7.20;99.90
10905;DHT22;5505;51.450;9.254;2024-02-23T14:39:34;7.20;99.90
10905;DHT22;5505;51.450;9.254;2024-02-23T14:42:21;7.10;99.90
10905;DHT22;5505;51.450;9.254;2024-02-23T14:45:10;7.10;99.90
10905;DHT22;5505;51.450;9.254;2024-02-23T14:47:58;7.10;99.90
10905;DHT22;5505;51.450;9.254;2024-02-23T14:50:46;7.10;99.90
10905;DHT22;5505;51.450;9.254;2024-02-23T14:53:33;7.00;99.90
10905;DHT22;5505;51.450;9.254;2024-02-23T14:56:19;7.00;99.90
10905;DHT22;5505;51.450;9.254;2024-02-23T14:59:07;7.00;99.90
10905;DHT22;5505;51.450;9.254;2024-02-23T15:01:57;7.10;99.90
10905;DHT22;5505;51.450;9.254;2024-02-23T15:04:44;7.10;99.90
10905;DHT22;5505;51.450;9.254;2024-02-23T15:07:31;7.10;99.90
10905;DHT22;5505;51.450;9.254;2024-02-23T15:10:18;7.10;99.90
10905;DHT22;5505;51.450;9.254;2024-02-23T15:13:05;7.10;99.90
10905;DHT22;5505;51.450;9.254;2024-02-23T15:15:52;7.00;99.90
10905;DHT22;5505;51.450;9.254;2024-02-23T15:18:41;7.00;99.90
10905;DHT22;5505;51.450;9.254;2024-02-23T15:21:28;7.10;99.90
10905;DHT22;5505;51.450;9.254;2024-02-23T15:24:14;8.60;99.90
10905;DHT22;5505;51.450;9.254;2024-02-23T15:27:03;7.10;99.90
10905;DHT22;5505;51.450;9.254;2024-02-23T15:29:50;7.20;99.90
10905;DHT22;5505;51.450;9.254;2024-02-23T15:32:37;7.20;99.90
10905;DHT22;5505;51.450;9.254;2024-02-23T15:35:25;7.30;99.90
10905;DHT22;5505;51.450;9.254;2024-02-23T15:38:13;7.30;99.90
10905;DHT22;5505;51.450;9.254;2024-02-23T15:41:00;7.30;99.90
10905;DHT22;5505;51.450;9.254;2024-02-23T15:43:47;7.30;99.90
10905;DHT22;5505;51.450;9.254;2024-02-23T15:46:34;7.30;99.90
10905;DHT22;5505;51.450;9.254;2024-02-23T15:49:20;7.90;99.90
10905;DHT22;5505;51.450;9.254;2024-02-23T15:52:11;7.70;99.90
10905;DHT22;5505;51.450;9.254;2024-02-23T15:54:58;7.20;99.90
10905;DHT22;5505;51.450;9.254;2024-02-23T15:57:45;7.20;99.90
10905;DHT22;5505;51.450;9.254;2024-02-23T16:00:32;7.20;99.90
10905;DHT22;5505;51.450;9.254;2024-02-23T16:03:18;7.10;99.90
10905;DHT22;5505;51.450;9.254;2024-02-23T16:06:05;7.30;99.90
10905;DHT22;5505;51.450;9.254;2024-02-23T16:08:53;7.30;99.90
10905;DHT22;5505;51.450;9.254;2024-02-23T16:11:44;7.20;99.90
10905;DHT22;5505;51.450;9.254;2024-02-23T16:14:31;7.20;99.90
10905;DHT22;5505;51.450;9.254;2024-02-23T16:17:18;7.10;99.90
10905;DHT22;5505;51.450;9.254;2024-02-23T16:20:06;7.10;99.90
10905;DHT22;5505;51.450;9.254;2024-02-23T16:22:53;7.00;99.90
10905;DHT22;5505;51.450;9.254;2024-02-23T16:25:42;7.10;99.90
10905;DHT22;5505;51.450;9.254;2024-02-23T16:28:29;7.10;99.90
10905;DHT22;5505;51.450;9.254;2024-02-23T16:31:15;7.00;99.90
10905;DHT22;5505;51.450;9.254;2024-02-23T16:34:02;6.90;99.90
10905;DHT22;5505;51.450;9.254;2024-02-23T16:36:49;6.90;99.90
10905;DHT22;5505;51.450;9.254;2024-02-23T16:39:36;6.80;99.90
10905;DHT22;5505;51.450;9.254;2024-02-23T16:42:24;6.60;99.90
10905;DHT22;5505;51.450;9.254;2024-02-23T16:45:11;6.80;99.90
10905;DHT22;5505;51.450;9.254;2024-02-23T16:47:58;6.70;99.90
10905;DHT22;5505;51.450;9.254;2024-02-23T16:50:46;6.70;99.90
10905;DHT22;5505;51.450;9.254;2024-02-23T16:53:33;6.70;99.90
10905;DHT22;5505;51.450;9.254;2024-02-23T16:56:20;6.70;99.90
10905;DHT22;5505;51.450;9.254;2024-02-23T16:59:08;6.60;99.90
10905;DHT22;5505;51.450;9.254;2024-02-23T17:01:55;6.60;99.90
10905;DHT22;5505;51.450;9.254;2024-02-23T17:04:41;6.60;99.90
10905;DHT22;5505;51.450;9.254;2024-02-23T17:07:28;6.60;99.90
10905;DHT22;5505;51.450;9.254;2024-02-23T17:10:15;6.70;99.90
10905;DHT22;5505;51.450;9.254;2024-02-23T17:13:02;7.00;99.90
10905;DHT22;5505;51.450;9.254;2024-02-23T17:15:51;6.50;99.90
10905;DHT22;5505;51.450;9.254;2024-02-23T17:18:37;6.40;99.90
10905;DHT22;5505;51.450;9.254;2024-02-23T17:21:24;6.30;99.90
10905;DHT22;5505;51.450;9.254;2024-02-23T17:24:11;6.20;99.90
10905;DHT22;5505;51.450;9.254;2024-02-23T17:26:58;6.20;99.90
10905;DHT22;5505;51.450;9.254;2024-02-23T17:29:45;6.20;99.90
10905;DHT22;5505;51.450;9.254;2024-02-23T17:32:33;6.60;99.90
10905;DHT22;5505;51.450;9.254;2024-02-23T17:35:20;6.20;99.90
10905;DHT22;5505;51.450;9.254;2024-02-23T17:38:07;6.10;99.90
10905;DHT22;5505;51.450;9.254;2024-02-23T17:40:54;6.00;99.90
10905;DHT22;5505;51.450;9.254;2024-02-23T17:43:42;5.90;99.90
10905;DHT22;5505;51.450;9.254;2024-02-23T17:46:29;6.30;99.90
10905;DHT22;5505;51.450;9.254;2024-02-23T17:49:17;5.80;99.90
10905;DHT22;5505;51.450;9.254;2024-02-23T17:52:05;5.80;99.90
10905;DHT22;5505;51.450;9.254;2024-02-23T17:54:51;5.80;99.90
10905;DHT22;5505;51.450;9.254;2024-02-23T17:57:38;5.80;99.90
10905;DHT22;5505;51.450;9.254;2024-02-23T18:00:25;5.80;99.90
10905;DHT22;5505;51.450;9.254;2024-02-23T18:03:12;5.70;99.90
10905;DHT22;5505;51.450;9.254;2024-02-23T18:06:00;5.50;99.90
10905;DHT22;5505;51.450;9.254;2024-02-23T18:08:47;5.40;99.90
10905;DHT22;5505;51.450;9.254;2024-02-23T18:11:34;5.40;99.90
10905;DHT22;5505;51.450;9.254;2024-02-23T18:14:23;5.30;99.90